createdAt,value
2022-12-31T00:02:26.025Z,97497.47
2022-12-31T00:04:54.661Z,97502.69
2022-12-31T00:07:21.309Z,97506.22
2022-12-31T00:09:48.036Z,97517.66
2022-12-31T00:12:14.688Z,97531.44
2022-12-31T00:14:41.427Z,97522.47
2022-12-31T00:17:08.201Z,97534.97
2022-12-31T00:19:34.935Z,97553.19
2022-12-31T00:22:01.669Z,97556.34
2022-12-31T00:24:31.230Z,97582.03
2022-12-31T00:26:58.013Z,97583.03
2022-12-31T00:29:24.792Z,97585.41
2022-12-31T00:31:51.506Z,97586.50
2022-12-31T00:34:18.171Z,97592.50
2022-12-31T00:36:46.104Z,97573.28
2022-12-31T00:39:13.061Z,97595.00
2022-12-31T00:41:39.867Z,97587.72
2022-12-31T00:44:06.744Z,97605.22
2022-12-31T00:46:33.564Z,97611.88
2022-12-31T00:49:00.354Z,97617.16
2022-12-31T00:51:30.044Z,97624.63
2022-12-31T00:53:57.735Z,97640.22
2022-12-31T00:56:27.618Z,97640.59
2022-12-31T00:58:54.463Z,97634.00
2022-12-31T01:01:22.743Z,97642.97
2022-12-31T01:03:52.703Z,97642.91
2022-12-31T01:06:19.697Z,97656.19
2022-12-31T01:08:49.238Z,97665.69
2022-12-31T01:11:29.152Z,97673.78
2022-12-31T01:13:59.539Z,97675.72
2022-12-31T01:16:32.441Z,97689.13
2022-12-31T01:19:04.849Z,97686.34
2022-12-31T01:21:33.258Z,97696.41
2022-12-31T01:24:00.243Z,97696.09
2022-12-31T01:26:27.718Z,97706.69
2022-12-31T01:28:54.808Z,97713.81
2022-12-31T01:31:23.082Z,97725.03
2022-12-31T01:33:53.168Z,97730.47
2022-12-31T01:36:26.588Z,97751.50
2022-12-31T01:38:58.581Z,97762.09
2022-12-31T01:41:32.803Z,97769.78
2022-12-31T01:44:03.883Z,97775.94
2022-12-31T01:46:39.370Z,97777.94
2022-12-31T01:49:27.930Z,97788.69
2022-12-31T01:52:02.554Z,97796.63
2022-12-31T01:54:33.577Z,97804.72
2022-12-31T01:57:00.721Z,97810.03
2022-12-31T01:59:28.938Z,97823.06
2022-12-31T02:01:56.291Z,97833.78
2022-12-31T02:04:25.132Z,97829.84
2022-12-31T02:07:08.087Z,97832.84
2022-12-31T02:09:38.427Z,97834.31
2022-12-31T02:12:07.115Z,97831.16
2022-12-31T02:14:39.165Z,97838.13
2022-12-31T02:17:21.655Z,97846.91
2022-12-31T02:19:57.502Z,97859.94
2022-12-31T02:23:03.856Z,97864.28
2022-12-31T02:25:49.405Z,97880.28
2022-12-31T02:28:46.969Z,97892.03
2022-12-31T02:31:20.687Z,97893.34
2022-12-31T02:34:09.390Z,97901.28
2022-12-31T02:36:40.636Z,97898.31
2022-12-31T02:39:10.166Z,97903.09
2022-12-31T02:41:52.130Z,97897.31
2022-12-31T02:44:24.546Z,97900.59
2022-12-31T02:47:13.775Z,97912.34
2022-12-31T02:49:49.375Z,97934.47
2022-12-31T02:52:46.306Z,97940.91
2022-12-31T02:55:31.776Z,97930.16
2022-12-31T02:58:43.444Z,97930.63
2022-12-31T03:01:29.438Z,97925.72
2022-12-31T03:04:16.243Z,97934.28
2022-12-31T03:06:43.429Z,97932.47
2022-12-31T03:09:13.060Z,97933.44
2022-12-31T03:11:58.573Z,97937.06
2022-12-31T03:14:25.337Z,97929.63
2022-12-31T03:16:51.985Z,97943.84
2022-12-31T03:19:37.359Z,97941.19
2022-12-31T03:22:24.395Z,97937.69
2022-12-31T03:25:09.899Z,97944.13
2022-12-31T03:27:36.721Z,97947.91
2022-12-31T03:30:04.750Z,97953.66
2022-12-31T03:32:31.613Z,97956.81
2022-12-31T03:34:58.377Z,97966.34
2022-12-31T03:37:25.207Z,97967.84
2022-12-31T03:39:51.974Z,97968.66
2022-12-31T03:42:18.724Z,97971.13
2022-12-31T03:44:45.373Z,97964.34
2022-12-31T03:47:12.085Z,97966.72
2022-12-31T03:49:38.761Z,97984.19
2022-12-31T03:52:06.516Z,97995.88
2022-12-31T03:54:33.290Z,97998.00
2022-12-31T03:57:00.542Z,97993.88
2022-12-31T03:59:27.293Z,98005.59
2022-12-31T04:01:54.116Z,97992.41
2022-12-31T04:04:21.046Z,97981.47
2022-12-31T04:06:48.196Z,98002.75
2022-12-31T04:09:14.810Z,98010.97
2022-12-31T04:11:41.715Z,98012.28
2022-12-31T04:14:08.395Z,98022.81
2022-12-31T04:16:35.117Z,98035.53
2022-12-31T04:19:03.083Z,98042.09
2022-12-31T04:21:34.794Z,98041.22
2022-12-31T04:24:02.713Z,98054.88
2022-12-31T04:26:29.983Z,98054.63
2022-12-31T04:28:57.062Z,98053.97
2022-12-31T04:31:23.859Z,98046.91
2022-12-31T04:33:50.810Z,98054.28
2022-12-31T04:36:17.552Z,98048.94
2022-12-31T04:38:44.317Z,98066.91
2022-12-31T04:41:17.052Z,98060.09
2022-12-31T04:43:47.019Z,98071.50
2022-12-31T04:46:14.574Z,98073.47
2022-12-31T04:48:41.957Z,98079.41
2022-12-31T04:51:08.669Z,98088.13
2022-12-31T04:53:35.738Z,98099.50
2022-12-31T04:56:02.528Z,98097.19
2022-12-31T04:58:29.422Z,98106.19
2022-12-31T05:00:56.613Z,98112.00
2022-12-31T05:03:25.258Z,98128.72
2022-12-31T05:05:52.743Z,98127.75
2022-12-31T05:08:20.738Z,98137.69
2022-12-31T05:10:49.291Z,98131.09
2022-12-31T05:13:16.512Z,98129.78
2022-12-31T05:15:43.434Z,98129.03
2022-12-31T05:18:10.111Z,98134.31
2022-12-31T05:20:36.969Z,98134.81
2022-12-31T05:23:04.055Z,98145.53
2022-12-31T05:25:31.621Z,98143.56
2022-12-31T05:27:58.268Z,98153.50
2022-12-31T05:30:25.473Z,98144.06
2022-12-31T05:32:52.567Z,98148.00
2022-12-31T05:35:19.372Z,98149.44
2022-12-31T05:37:46.138Z,98145.75
2022-12-31T05:40:13.530Z,98149.50
2022-12-31T05:42:40.215Z,98149.28
2022-12-31T05:45:07.497Z,98160.13
2022-12-31T05:47:34.247Z,98157.94
2022-12-31T05:50:00.980Z,98159.06
2022-12-31T05:52:27.648Z,98161.34
2022-12-31T05:54:54.401Z,98155.16
2022-12-31T05:57:21.140Z,98163.09
2022-12-31T05:59:47.890Z,98156.88
2022-12-31T06:02:14.587Z,98160.69
2022-12-31T06:04:41.410Z,98164.28
2022-12-31T06:07:08.583Z,98152.13
2022-12-31T06:09:35.278Z,98164.38
2022-12-31T06:12:02.142Z,98172.16
2022-12-31T06:14:28.776Z,98167.75
2022-12-31T06:16:55.475Z,98167.22
2022-12-31T06:19:22.183Z,98174.16
2022-12-31T06:21:49.330Z,98177.44
2022-12-31T06:24:16.104Z,98180.38
2022-12-31T06:26:42.861Z,98179.41
2022-12-31T06:29:10.424Z,98187.97
2022-12-31T06:31:37.531Z,98189.63
2022-12-31T06:34:04.529Z,98194.59
2022-12-31T06:36:31.253Z,98198.50
2022-12-31T06:38:59.422Z,98194.91
2022-12-31T06:41:26.266Z,98197.16
2022-12-31T06:43:53.834Z,98200.66
2022-12-31T06:46:20.548Z,98209.28
2022-12-31T06:48:47.464Z,98217.59
2022-12-31T06:51:17.815Z,98225.47
2022-12-31T06:53:49.633Z,98231.31
2022-12-31T06:56:31.395Z,98228.66
2022-12-31T06:59:00.655Z,98226.31
2022-12-31T07:01:59.091Z,98236.13
2022-12-31T07:04:58.579Z,98236.13
2022-12-31T07:07:25.316Z,98238.34
2022-12-31T07:10:07.358Z,98249.56
2022-12-31T07:12:52.796Z,98257.31
2022-12-31T07:16:04.398Z,98268.66
2022-12-31T07:18:38.635Z,98279.47
2022-12-31T07:21:13.152Z,98287.09
2022-12-31T07:23:41.209Z,98293.19
2022-12-31T07:26:34.195Z,98284.75
2022-12-31T07:29:22.058Z,98302.88
2022-12-31T07:32:33.456Z,98307.16
2022-12-31T07:35:27.321Z,98321.00
2022-12-31T07:38:32.130Z,98326.78
2022-12-31T07:41:10.008Z,98342.84
2022-12-31T07:43:56.530Z,98349.06
2022-12-31T07:46:40.375Z,98354.72
2022-12-31T07:49:12.837Z,98354.72
2022-12-31T07:51:40.474Z,98355.00
2022-12-31T07:54:13.401Z,98354.41
2022-12-31T07:56:41.241Z,98354.00
2022-12-31T07:59:45.502Z,98361.34
2022-12-31T08:02:33.491Z,98378.28
2022-12-31T08:05:16.378Z,98379.22
2022-12-31T08:08:23.504Z,98376.72
2022-12-31T08:10:56.338Z,98382.09
2022-12-31T08:13:23.178Z,98387.59
2022-12-31T08:15:50.154Z,98394.91
2022-12-31T08:18:17.783Z,98391.56
2022-12-31T08:21:02.545Z,98402.22
2022-12-31T08:23:59.319Z,98403.06
2022-12-31T08:26:37.573Z,98406.19
2022-12-31T08:29:06.728Z,98415.59
2022-12-31T08:32:12.092Z,98414.91
2022-12-31T08:34:45.582Z,98422.66
2022-12-31T08:38:04.892Z,98441.88
2022-12-31T08:40:46.157Z,98443.81
2022-12-31T08:43:27.827Z,98448.34
2022-12-31T08:45:56.788Z,98468.31
2022-12-31T08:48:43.851Z,98468.84
2022-12-31T08:51:19.042Z,98475.53
2022-12-31T08:53:46.261Z,98484.09
2022-12-31T08:56:48.778Z,98484.72
2022-12-31T08:59:22.873Z,98484.06
2022-12-31T09:01:49.653Z,98486.31
2022-12-31T09:04:29.106Z,98493.25
2022-12-31T09:07:03.059Z,98492.38
2022-12-31T09:09:33.259Z,98488.09
2022-12-31T09:12:15.273Z,98495.16
2022-12-31T09:14:48.803Z,98504.69
2022-12-31T09:17:39.995Z,98502.78
2022-12-31T09:20:13.877Z,98502.53
2022-12-31T09:22:40.930Z,98508.50
2022-12-31T09:25:12.383Z,98507.22
2022-12-31T09:27:51.711Z,98508.56
2022-12-31T09:30:19.052Z,98515.38
2022-12-31T09:33:04.771Z,98520.09
2022-12-31T09:36:03.666Z,98520.97
2022-12-31T09:38:55.015Z,98526.38
2022-12-31T09:41:45.695Z,98528.91
2022-12-31T09:44:30.942Z,98519.06
2022-12-31T09:47:28.545Z,98522.69
2022-12-31T09:50:23.661Z,98527.97
2022-12-31T09:53:18.962Z,98538.81
2022-12-31T09:55:49.922Z,98533.41
2022-12-31T09:58:31.033Z,98536.31
2022-12-31T10:01:06.962Z,98538.81
2022-12-31T10:03:59.061Z,98547.13
2022-12-31T10:06:52.318Z,98552.41
2022-12-31T10:09:25.027Z,98560.69
2022-12-31T10:12:00.540Z,98570.16
2022-12-31T10:14:48.976Z,98580.13
2022-12-31T10:17:23.459Z,98593.44
2022-12-31T10:20:16.451Z,98580.97
2022-12-31T10:23:08.400Z,98595.25
2022-12-31T10:25:39.673Z,98604.84
2022-12-31T10:28:30.163Z,98611.47
2022-12-31T10:31:27.388Z,98623.81
2022-12-31T10:34:27.109Z,98632.00
2022-12-31T10:36:55.629Z,98638.38
2022-12-31T10:39:37.678Z,98644.63
2022-12-31T10:42:36.299Z,98635.88
2022-12-31T10:45:22.912Z,98640.75
2022-12-31T10:48:16.811Z,98642.69
2022-12-31T10:50:58.579Z,98643.38
2022-12-31T10:54:05.393Z,98641.19
2022-12-31T10:56:50.331Z,98637.44
2022-12-31T10:59:34.604Z,98632.84
2022-12-31T11:02:38.825Z,98642.81
2022-12-31T11:05:23.747Z,98644.34
2022-12-31T11:08:02.777Z,98641.44
2022-12-31T11:10:38.340Z,98635.19
2022-12-31T11:13:38.681Z,98641.72
2022-12-31T11:16:29.594Z,98638.94
2022-12-31T11:19:01.962Z,98653.38
2022-12-31T11:21:47.228Z,98652.41
2022-12-31T11:24:33.825Z,98648.38
2022-12-31T11:27:22.017Z,98646.16
2022-12-31T11:30:03.670Z,98631.31
2022-12-31T11:32:41.850Z,98645.06
2022-12-31T11:35:22.567Z,98642.56
2022-12-31T11:38:17.793Z,98639.22
2022-12-31T11:40:48.405Z,98644.50
2022-12-31T11:43:34.581Z,98633.41
2022-12-31T11:46:10.457Z,98637.81
2022-12-31T11:48:52.980Z,98634.78
2022-12-31T11:51:19.729Z,98638.25
2022-12-31T11:54:25.175Z,98644.06
2022-12-31T11:56:58.475Z,98642.56
2022-12-31T11:59:25.152Z,98645.59
2022-12-31T12:02:00.836Z,98642.81
2022-12-31T12:04:28.228Z,98642.81
2022-12-31T12:06:55.043Z,98654.91
2022-12-31T12:09:31.228Z,98653.38
2022-12-31T12:12:01.149Z,98649.06
2022-12-31T12:14:32.947Z,98654.91
2022-12-31T12:17:04.671Z,98661.13
2022-12-31T12:22:26.623Z,98672.53
2022-12-31T12:25:08.108Z,98664.31
2022-12-31T12:27:36.206Z,98677.25
2022-12-31T12:30:19.494Z,98685.97
2022-12-31T12:32:58.085Z,98689.31
2022-12-31T12:35:36.703Z,98695.81
2022-12-31T12:38:13.754Z,98701.03
2022-12-31T12:40:41.015Z,98701.91
2022-12-31T12:43:22.630Z,98697.44
2022-12-31T12:45:52.341Z,98696.91
2022-12-31T12:48:30.794Z,98696.22
2022-12-31T12:50:59.260Z,98692.75
2022-12-31T12:53:35.125Z,98695.94
2022-12-31T12:56:30.644Z,98708.84
2022-12-31T12:59:27.952Z,98713.28
2022-12-31T13:02:08.531Z,98717.47
2022-12-31T13:05:03.427Z,98718.41
2022-12-31T13:07:59.120Z,98725.38
2022-12-31T13:10:47.339Z,98726.31
2022-12-31T13:13:24.594Z,98722.16
2022-12-31T13:16:23.873Z,98725.91
2022-12-31T13:19:09.289Z,98722.97
2022-12-31T13:21:39.453Z,98725.78
2022-12-31T13:24:24.894Z,98723.28
2022-12-31T13:27:22.440Z,98720.50
2022-12-31T13:29:49.613Z,98727.84
2022-12-31T13:32:28.117Z,98721.28
2022-12-31T13:35:01.712Z,98728.78
2022-12-31T13:37:41.973Z,98728.50
2022-12-31T13:40:21.195Z,98726.91
2022-12-31T13:43:14.689Z,98730.06
2022-12-31T13:45:45.505Z,98731.81
2022-12-31T13:48:18.839Z,98734.56
2022-12-31T13:51:00.508Z,98731.03
2022-12-31T13:53:36.593Z,98741.25
2022-12-31T13:56:11.100Z,98741.53
2022-12-31T13:58:57.672Z,98745.63
2022-12-31T14:01:33.848Z,98741.72
2022-12-31T14:04:18.331Z,98740.56
2022-12-31T14:07:11.367Z,98747.13
2022-12-31T14:09:38.359Z,98738.41
2022-12-31T14:12:05.002Z,98745.56
2022-12-31T14:14:48.944Z,98746.84
2022-12-31T14:17:23.577Z,98749.34
2022-12-31T14:20:07.388Z,98748.97
2022-12-31T14:23:03.000Z,98748.97
2022-12-31T14:25:47.991Z,98744.22
2022-12-31T14:28:47.070Z,98746.53
2022-12-31T14:31:46.300Z,98745.00
2022-12-31T14:34:24.632Z,98748.72
2022-12-31T14:37:06.461Z,98755.19
2022-12-31T14:40:00.369Z,98744.78
2022-12-31T14:42:46.798Z,98754.19
2022-12-31T14:45:25.609Z,98758.25
2022-12-31T14:48:04.353Z,98761.38
2022-12-31T14:50:33.894Z,98772.84
2022-12-31T14:53:03.467Z,98773.22
2022-12-31T14:55:33.767Z,98772.41
2022-12-31T14:58:28.922Z,98773.63
2022-12-31T15:01:19.921Z,98778.03
2022-12-31T15:03:51.793Z,98774.81
2022-12-31T15:06:33.183Z,98780.59
2022-12-31T15:09:15.003Z,98781.81
2022-12-31T15:12:06.500Z,98794.34
2022-12-31T15:14:37.438Z,98798.69
2022-12-31T15:17:15.409Z,98788.03
2022-12-31T15:20:01.440Z,98792.19
2022-12-31T15:22:33.977Z,98797.59
2022-12-31T15:25:01.204Z,98805.34
2022-12-31T15:27:35.806Z,98811.31
2022-12-31T15:30:04.981Z,98810.63
2022-12-31T15:32:35.167Z,98822.06
2022-12-31T15:35:20.975Z,98816.97
2022-12-31T15:38:15.626Z,98819.59
2022-12-31T15:40:50.677Z,98824.53
2022-12-31T15:43:43.445Z,98823.94
2022-12-31T15:46:18.688Z,98826.06
2022-12-31T15:49:01.948Z,98822.25
2022-12-31T15:51:41.681Z,98827.28
2022-12-31T15:54:23.153Z,98824.31
2022-12-31T15:56:51.416Z,98826.34
2022-12-31T15:59:20.454Z,98830.50
2022-12-31T16:01:47.961Z,98837.84
2022-12-31T16:04:33.510Z,98835.69
2022-12-31T16:07:03.451Z,98856.13
2022-12-31T16:09:35.989Z,98859.84
2022-12-31T16:12:10.089Z,98852.19
2022-12-31T16:14:40.545Z,98854.34
2022-12-31T16:17:20.711Z,98859.94
2022-12-31T16:19:47.760Z,98859.84
2022-12-31T16:22:24.828Z,98857.69
2022-12-31T16:25:38.869Z,98862.22
2022-12-31T16:27:43.626Z,98862.22
2022-12-31T16:30:25.623Z,98855.78
2022-12-31T16:32:55.912Z,98865.31
2022-12-31T16:35:31.353Z,98860.19
2022-12-31T16:38:13.658Z,98855.41
2022-12-31T16:40:42.876Z,98845.97
2022-12-31T16:43:25.022Z,98844.78
2022-12-31T16:45:52.361Z,98852.88
2022-12-31T16:48:21.050Z,98851.34
2022-12-31T16:50:52.757Z,98852.44
2022-12-31T16:53:24.998Z,98857.69
2022-12-31T16:55:56.783Z,98866.03
2022-12-31T16:58:37.372Z,98862.69
2022-12-31T17:01:28.013Z,98857.44
2022-12-31T17:03:59.891Z,98863.28
2022-12-31T17:06:28.442Z,98867.47
2022-12-31T17:09:00.870Z,98872.25
2022-12-31T17:11:33.183Z,98866.88
2022-12-31T17:14:05.906Z,98869.44
2022-12-31T17:16:34.373Z,98882.91
2022-12-31T17:19:01.404Z,98886.75
2022-12-31T17:21:31.172Z,98894.63
2022-12-31T17:24:06.322Z,98885.66
2022-12-31T17:26:37.386Z,98890.31
2022-12-31T17:29:05.946Z,98889.59
2022-12-31T17:31:34.560Z,98885.31
2022-12-31T17:34:18.008Z,98887.22
2022-12-31T17:37:13.047Z,98895.69
2022-12-31T17:39:45.943Z,98896.28
2022-12-31T17:42:15.505Z,98890.78
2022-12-31T17:44:44.350Z,98900.34
2022-12-31T17:47:14.078Z,98902.25
2022-12-31T17:49:45.024Z,98901.44
2022-12-31T17:52:15.776Z,98903.09
2022-12-31T17:54:43.054Z,98907.78
2022-12-31T17:57:24.091Z,98915.41
2022-12-31T17:59:50.947Z,98913.75
2022-12-31T18:02:17.829Z,98916.00
2022-12-31T18:04:47.218Z,98922.69
2022-12-31T18:07:13.890Z,98930.09
2022-12-31T18:09:40.604Z,98933.69
2022-12-31T18:12:08.353Z,98930.34
2022-12-31T18:14:35.165Z,98927.94
2022-12-31T18:17:01.969Z,98925.44
2022-12-31T18:22:16.612Z,98926.38
2022-12-31T18:24:44.549Z,98915.88
2022-12-31T18:27:18.888Z,98924.94
2022-12-31T18:29:46.769Z,98925.56
2022-12-31T18:32:23.584Z,98933.91
2022-12-31T18:34:50.731Z,98932.47
2022-12-31T18:37:22.099Z,98927.13
2022-12-31T18:39:49.432Z,98925.44
2022-12-31T18:42:18.301Z,98929.75
2022-12-31T18:44:45.566Z,98937.84
2022-12-31T18:47:17.314Z,98933.78
2022-12-31T18:49:45.113Z,98933.53
2022-12-31T18:52:17.386Z,98928.53
2022-12-31T18:54:44.395Z,98927.94
2022-12-31T18:57:12.288Z,98935.59
2022-12-31T18:59:39.434Z,98936.31
2022-12-31T19:02:14.505Z,98942.16
2022-12-31T19:04:41.311Z,98946.56
2022-12-31T19:07:07.953Z,98944.66
2022-12-31T19:09:54.572Z,98943.94
2022-12-31T19:12:21.445Z,98947.78
2022-12-31T19:14:48.144Z,98937.38
2022-12-31T19:17:14.802Z,98935.69
2022-12-31T19:19:41.536Z,98944.91
2022-12-31T19:22:15.067Z,98944.31
2022-12-31T19:24:41.763Z,98950.28
2022-12-31T19:27:09.833Z,98952.06
2022-12-31T19:29:36.552Z,98964.00
2022-12-31T19:32:03.238Z,98973.94
2022-12-31T19:34:29.939Z,98969.03
2022-12-31T19:36:56.594Z,98976.91
2022-12-31T19:39:23.273Z,98973.81
2022-12-31T19:41:56.549Z,98971.91
2022-12-31T19:44:25.736Z,98986.25
2022-12-31T19:46:52.649Z,98992.00
2022-12-31T19:49:19.334Z,98997.72
2022-12-31T19:51:46.125Z,99000.13
2022-12-31T19:54:13.426Z,98999.16
2022-12-31T19:56:40.160Z,99001.53
2022-12-31T19:59:09.535Z,98997.97
2022-12-31T20:01:36.556Z,99005.38
2022-12-31T20:04:03.541Z,98999.16
2022-12-31T20:06:30.238Z,98996.50
2022-12-31T20:08:56.997Z,99000.59
2022-12-31T20:11:24.504Z,98990.78
2022-12-31T20:13:54.906Z,98998.91
2022-12-31T20:16:24.700Z,98986.72
2022-12-31T20:18:51.563Z,98978.09
2022-12-31T20:21:24.360Z,98972.47
2022-12-31T20:23:52.118Z,98968.19
2022-12-31T20:26:20.623Z,98962.09
2022-12-31T20:28:47.598Z,98968.06
2022-12-31T20:31:21.390Z,98974.28
2022-12-31T20:33:48.332Z,98967.22
2022-12-31T20:36:17.027Z,98967.94
2022-12-31T20:38:44.335Z,98976.22
2022-12-31T20:41:14.710Z,98977.97
2022-12-31T20:43:41.863Z,98976.22
2022-12-31T20:46:15.645Z,98971.66
2022-12-31T20:48:44.216Z,98965.69
2022-12-31T20:51:11.452Z,98964.38
2022-12-31T20:53:38.426Z,98965.19
2022-12-31T20:56:09.665Z,98969.72
2022-12-31T20:58:36.376Z,98979.78
2022-12-31T21:01:06.761Z,98971.16
2022-12-31T21:04:05.061Z,98979.88
2022-12-31T21:06:26.234Z,98982.28
2022-12-31T21:08:54.935Z,98992.44
2022-12-31T21:11:40.255Z,98992.44
2022-12-31T21:14:07.211Z,98992.19
2022-12-31T21:16:34.071Z,98994.34
2022-12-31T21:19:01.635Z,98995.53
2022-12-31T21:21:28.596Z,98993.06
2022-12-31T21:23:55.497Z,98995.88
2022-12-31T21:26:22.164Z,98996.75
2022-12-31T21:28:48.863Z,99001.63
2022-12-31T21:31:16.816Z,98998.75
2022-12-31T21:33:45.288Z,98994.53
2022-12-31T21:36:12.538Z,98996.56
2022-12-31T21:38:39.802Z,98993.09
2022-12-31T21:41:08.007Z,98985.66
2022-12-31T21:43:35.147Z,98984.44
2022-12-31T21:46:04.466Z,98989.47
2022-12-31T21:48:32.027Z,98979.91
2022-12-31T21:51:10.019Z,98978.25
2022-12-31T21:53:37.478Z,98985.63
2022-12-31T21:56:08.349Z,98989.44
2022-12-31T21:58:40.469Z,98980.44
2022-12-31T22:01:28.628Z,98998.97
2022-12-31T22:03:55.483Z,98982.47
2022-12-31T22:06:24.005Z,98976.22
2022-12-31T22:08:53.736Z,98961.34
2022-12-31T22:11:22.727Z,98976.50
2022-12-31T22:13:49.768Z,98991.34
2022-12-31T22:16:18.527Z,98985.25
2022-12-31T22:18:45.229Z,98984.59
2022-12-31T22:21:20.048Z,98989.38
2022-12-31T22:23:52.363Z,98985.25
2022-12-31T22:26:21.651Z,98975.94
2022-12-31T22:28:48.524Z,98986.06
2022-12-31T22:31:21.696Z,98978.06
2022-12-31T22:33:48.985Z,98966.91
2022-12-31T22:36:18.231Z,98961.34
2022-12-31T22:38:45.230Z,98961.34
2022-12-31T22:41:14.806Z,98955.94
2022-12-31T22:43:44.565Z,98958.84
2022-12-31T22:46:18.653Z,98959.53
2022-12-31T22:48:45.631Z,98972.59
2022-12-31T22:51:13.382Z,98962.47
2022-12-31T22:53:41.329Z,98956.97
2022-12-31T22:56:09.385Z,98961.38
2022-12-31T22:58:36.394Z,98966.19
2022-12-31T23:01:14.318Z,98963.56
2022-12-31T23:07:32.456Z,98963.25
2022-12-31T23:15:45.193Z,98974.50
2022-12-31T23:18:38.644Z,98973.69
2022-12-31T23:21:28.897Z,98992.03
2022-12-31T23:23:55.642Z,98990.47
2022-12-31T23:26:22.296Z,98995.16
2022-12-31T23:28:49.045Z,99002.94
2022-12-31T23:31:15.740Z,99001.84
2022-12-31T23:33:42.440Z,98996.84
2022-12-31T23:36:09.429Z,98997.16
2022-12-31T23:38:36.208Z,98993.72
2022-12-31T23:41:12.183Z,98985.28
2022-12-31T23:43:38.871Z,98991.78
2022-12-31T23:46:05.625Z,98986.75
2022-12-31T23:48:32.360Z,98985.03
2022-12-31T23:50:59.253Z,98978.72
2022-12-31T23:53:26.138Z,98980.38
2022-12-31T23:55:53.202Z,98972.25
2022-12-31T23:58:21.205Z,98971.53
